Time;durP1;ratioP1;P1;durP2;ratioP2;P2;SDS_P1;SDS_P2;PMS_P1;PMS_P2;Temp;Humidity;BMP_temperature;BMP_pressure;BME280_temperature;BME280_humidity;BME280_pressure;Samples;Min_cycle;Max_cycle;Signal;HPM_P1;HPM_P2
2022/10/12 00:00:12;;;;;;;10.95;4.70;;;;;;;;;;5032963;28;20034;-62
2022/10/12 00:02:39;;;;;;;11.52;4.45;;;;;;;;;;5032987;28;20040;-62
2022/10/12 00:05:06;;;;;;;12.18;5.45;;;;;;;;;;5032992;28;20406;-62
2022/10/12 00:07:32;;;;;;;14.77;5.50;;;;;;;;;;5033077;28;20357;-62
2022/10/12 00:09:58;;;;;;;17.45;5.72;;;;;;;;;;5042439;28;20045;-62
2022/10/12 00:12:24;;;;;;;12.95;5.07;;;;;;;;;;5052834;28;20040;-62
2022/10/12 00:14:50;;;;;;;12.13;5.90;;;;;;;;;;5051834;28;20029;-62
2022/10/12 00:17:16;;;;;;;17.60;5.47;;;;;;;;;;5046955;28;20489;-62
2022/10/12 00:19:42;;;;;;;10.75;4.88;;;;;;;;;;5033336;28;20037;-62
2022/10/12 00:22:08;;;;;;;13.95;5.13;;;;;;;;;;5032888;28;20025;-62
2022/10/12 00:24:34;;;;;;;11.20;5.35;;;;;;;;;;5033203;28;20080;-62
2022/10/12 00:27:00;;;;;;;14.38;7.05;;;;;;;;;;5032912;28;20025;-62
2022/10/12 00:29:27;;;;;;;12.82;5.38;;;;;;;;;;5032982;28;20026;-62
2022/10/12 00:31:53;;;;;;;9.50;5.57;;;;;;;;;;5033055;28;20037;-62
2022/10/12 00:34:19;;;;;;;15.38;5.68;;;;;;;;;;5032706;28;20030;-62
2022/10/12 00:36:45;;;;;;;12.60;5.70;;;;;;;;;;5032931;28;20084;-62
2022/10/12 00:39:11;;;;;;;9.73;5.00;;;;;;;;;;5032494;28;20037;-62
2022/10/12 00:41:39;;;;;;;12.77;5.70;;;;;;;;;;5032336;28;20497;-62
2022/10/12 00:44:24;;;;;;;15.55;4.82;;;;;;;;;;5032398;28;20488;-62
2022/10/12 00:46:52;;;;;;;13.02;5.15;;;;;;;;;;5032864;28;20184;-62
2022/10/12 00:49:20;;;;;;;10.35;4.82;;;;;;;;;;5032262;28;20036;-62
2022/10/12 00:51:48;;;;;;;10.85;5.05;;;;;;;;;;5032825;28;20056;-62
2022/10/12 00:54:18;;;;;;;14.38;5.47;;;;;;;;;;5034161;28;20074;-62
2022/10/12 00:56:46;;;;;;;11.07;5.18;;;;;;;;;;5036340;28;20073;-62
2022/10/12 00:59:16;;;;;;;12.25;4.88;;;;;;;;;;5036609;28;20025;-62
2022/10/12 01:01:42;;;;;;;10.65;5.53;;;;;;;;;;5036325;28;20048;-62
2022/10/12 01:04:08;;;;;;;12.50;5.13;;;;;;;;;;5035824;28;20033;-62
2022/10/12 01:06:35;;;;;;;8.95;5.10;;;;;;;;;;5036749;28;20132;-62
2022/10/12 01:09:01;;;;;;;8.10;4.47;;;;;;;;;;5038258;28;20041;-62
2022/10/12 01:11:27;;;;;;;11.20;6.03;;;;;;;;;;5044345;28;20048;-62
2022/10/12 01:13:53;;;;;;;9.57;5.28;;;;;;;;;;5036438;28;20099;-62
2022/10/12 01:16:22;;;;;;;13.30;5.93;;;;;;;;;;5035590;28;20041;-62
2022/10/12 01:19:15;;;;;;;11.70;4.80;;;;;;;;;;5036329;28;20477;-62
2022/10/12 01:21:48;;;;;;;17.80;6.00;;;;;;;;;;5033791;28;20041;-62
2022/10/12 01:24:34;;;;;;;9.75;4.82;;;;;;;;;;5033166;28;20275;-62
2022/10/12 01:27:03;;;;;;;6.97;4.20;;;;;;;;;;5034091;28;20563;-62
2022/10/12 01:29:44;;;;;;;10.07;4.60;;;;;;;;;;5033703;28;20535;-62
2022/10/12 01:32:18;;;;;;;9.25;5.00;;;;;;;;;;5014433;28;20116;-62
2022/10/12 01:34:53;;;;;;;12.75;5.03;;;;;;;;;;5033696;28;20037;-63
2022/10/12 01:37:28;;;;;;;13.30;4.75;;;;;;;;;;5033602;28;20481;-62
2022/10/12 01:39:56;;;;;;;8.27;4.53;;;;;;;;;;5033011;28;20037;-62
2022/10/12 01:42:42;;;;;;;13.98;5.45;;;;;;;;;;5032987;28;20026;-62
2022/10/12 01:45:10;;;;;;;12.82;4.95;;;;;;;;;;5032766;28;20025;-62
2022/10/12 01:47:37;;;;;;;9.85;5.10;;;;;;;;;;5033220;28;20021;-62
2022/10/12 01:50:05;;;;;;;8.95;5.07;;;;;;;;;;5033274;28;20029;-62
2022/10/12 01:52:36;;;;;;;7.88;4.32;;;;;;;;;;5032505;28;20049;-62
2022/10/12 01:55:05;;;;;;;12.18;4.95;;;;;;;;;;5033734;28;20124;-62
2022/10/12 01:57:46;;;;;;;11.00;4.63;;;;;;;;;;5033578;28;20025;-62
2022/10/12 02:00:14;;;;;;;9.02;4.57;;;;;;;;;;5035693;28;20036;-62
2022/10/12 02:02:43;;;;;;;8.18;5.10;;;;;;;;;;5035451;28;20033;-62
2022/10/12 02:05:15;;;;;;;11.02;4.97;;;;;;;;;;5035332;28;20040;-62
2022/10/12 02:07:41;;;;;;;10.93;4.78;;;;;;;;;;5035471;28;20036;-62
2022/10/12 02:10:11;;;;;;;15.90;4.40;;;;;;;;;;5047178;28;20056;-62
2022/10/12 02:12:39;;;;;;;12.52;5.82;;;;;;;;;;5055407;28;20083;-62
2022/10/12 02:15:07;;;;;;;9.07;4.38;;;;;;;;;;5055410;28;20111;-62
2022/10/12 02:17:35;;;;;;;10.23;4.53;;;;;;;;;;5046440;28;20049;-62
2022/10/12 02:20:02;;;;;;;12.20;5.25;;;;;;;;;;5035350;28;20034;-60
2022/10/12 02:22:33;;;;;;;12.18;5.03;;;;;;;;;;5034641;28;20095;-61
2022/10/12 02:25:01;;;;;;;11.98;5.13;;;;;;;;;;5034854;28;20075;-61
2022/10/12 02:27:27;;;;;;;8.70;5.03;;;;;;;;;;5034675;28;20025;-61
2022/10/12 02:29:53;;;;;;;13.13;6.85;;;;;;;;;;5035107;28;20021;-61
2022/10/12 02:32:29;;;;;;;12.98;4.78;;;;;;;;;;5034673;28;20025;-61
2022/10/12 02:34:57;;;;;;;9.45;4.78;;;;;;;;;;5034105;28;20025;-61
2022/10/12 02:37:31;;;;;;;13.05;4.63;;;;;;;;;;5034293;28;20037;-61
2022/10/12 02:40:09;;;;;;;7.68;4.43;;;;;;;;;;5034648;28;20025;-61
2022/10/12 02:42:38;;;;;;;10.27;4.70;;;;;;;;;;5034482;28;20037;-61
2022/10/12 02:45:06;;;;;;;9.32;4.18;;;;;;;;;;5034667;28;20033;-61
2022/10/12 02:47:34;;;;;;;8.65;4.20;;;;;;;;;;5034062;28;20041;-61
2022/10/12 02:50:00;;;;;;;14.13;5.88;;;;;;;;;;5034315;28;20405;-60
2022/10/12 02:52:27;;;;;;;12.50;4.57;;;;;;;;;;5033989;28;20080;-61
2022/10/12 02:54:53;;;;;;;9.15;5.65;;;;;;;;;;5034737;28;20053;-61
2022/10/12 02:57:19;;;;;;;11.35;4.45;;;;;;;;;;5034784;28;20079;-60
2022/10/12 02:59:45;;;;;;;11.90;4.40;;;;;;;;;;5034372;28;20131;-61
2022/10/12 03:02:11;;;;;;;7.93;4.35;;;;;;;;;;5034208;28;20031;-60
2022/10/12 03:04:37;;;;;;;10.35;4.72;;;;;;;;;;5034400;28;20028;-61
2022/10/12 03:07:03;;;;;;;10.27;4.45;;;;;;;;;;5033394;28;20029;-61
2022/10/12 03:09:30;;;;;;;9.82;4.28;;;;;;;;;;5033482;28;20115;-61
2022/10/12 03:11:56;;;;;;;7.55;4.68;;;;;;;;;;5033816;28;20029;-60
2022/10/12 03:14:22;;;;;;;8.30;4.28;;;;;;;;;;5033914;28;20369;-60
2022/10/12 03:16:49;;;;;;;7.07;4.07;;;;;;;;;;5033357;28;20088;-60
2022/10/12 03:19:15;;;;;;;9.80;4.40;;;;;;;;;;5034388;28;20029;-60
2022/10/12 03:21:41;;;;;;;9.07;4.32;;;;;;;;;;5033305;28;20037;-60
2022/10/12 03:24:07;;;;;;;8.18;4.13;;;;;;;;;;5033888;28;20027;-60
2022/10/12 03:26:34;;;;;;;8.88;3.83;;;;;;;;;;5034048;28;20381;-60
2022/10/12 03:29:00;;;;;;;8.55;3.92;;;;;;;;;;5033904;28;20025;-61
2022/10/12 03:31:26;;;;;;;7.75;4.13;;;;;;;;;;5033650;28;20025;-60
2022/10/12 03:33:52;;;;;;;8.63;4.63;;;;;;;;;;5033954;28;20029;-60
2022/10/12 03:36:18;;;;;;;7.13;3.63;;;;;;;;;;5033639;28;20033;-61
2022/10/12 03:38:44;;;;;;;9.43;4.45;;;;;;;;;;5033646;28;20040;-60
2022/10/12 03:41:10;;;;;;;10.85;4.07;;;;;;;;;;5033821;28;20026;-61
2022/10/12 03:43:36;;;;;;;8.48;3.97;;;;;;;;;;5033651;28;20033;-61
2022/10/12 03:46:03;;;;;;;6.53;3.88;;;;;;;;;;5033915;28;20032;-60
2022/10/12 03:48:29;;;;;;;6.63;3.80;;;;;;;;;;5033314;28;20156;-61
2022/10/12 03:50:55;;;;;;;8.52;4.05;;;;;;;;;;5032820;28;20017;-60
2022/10/12 03:53:21;;;;;;;6.65;3.80;;;;;;;;;;5033412;28;20049;-60
2022/10/12 03:55:47;;;;;;;8.23;3.47;;;;;;;;;;5033510;28;20038;-60
2022/10/12 03:58:14;;;;;;;7.50;4.15;;;;;;;;;;5033492;28;20864;-60
2022/10/12 04:00:40;;;;;;;10.68;3.88;;;;;;;;;;5031235;28;20110;-60
2022/10/12 04:03:06;;;;;;;9.90;4.30;;;;;;;;;;5026144;28;20394;-61
2022/10/12 04:05:32;;;;;;;10.45;3.72;;;;;;;;;;5032509;28;20524;-61
2022/10/12 04:07:58;;;;;;;7.40;3.28;;;;;;;;;;5032557;28;20104;-61
2022/10/12 04:10:25;;;;;;;8.57;4.28;;;;;;;;;;5030370;28;20121;-61
2022/10/12 04:12:51;;;;;;;9.32;3.67;;;;;;;;;;5032605;28;20045;-61
2022/10/12 04:15:17;;;;;;;7.60;3.25;;;;;;;;;;5032787;28;20095;-61
2022/10/12 04:17:43;;;;;;;11.98;3.55;;;;;;;;;;5032335;28;20116;-61
2022/10/12 04:20:10;;;;;;;5.75;3.60;;;;;;;;;;5031825;28;20120;-60
2022/10/12 04:22:36;;;;;;;9.38;4.22;;;;;;;;;;5030996;28;20033;-61
2022/10/12 04:25:02;;;;;;;8.75;3.80;;;;;;;;;;5033257;28;20477;-61
2022/10/12 04:27:28;;;;;;;7.32;3.55;;;;;;;;;;5032517;28;20045;-61
2022/10/12 04:29:54;;;;;;;6.80;3.22;;;;;;;;;;5032544;28;20082;-60
2022/10/12 04:32:20;;;;;;;7.65;3.65;;;;;;;;;;5032770;28;20025;-61
2022/10/12 04:34:46;;;;;;;10.05;3.72;;;;;;;;;;5032864;28;20036;-60
2022/10/12 04:37:12;;;;;;;11.98;5.00;;;;;;;;;;5033033;28;20115;-60
2022/10/12 04:39:39;;;;;;;11.63;3.60;;;;;;;;;;5032573;28;20049;-60
2022/10/12 04:42:06;;;;;;;10.15;3.75;;;;;;;;;;5032946;28;20036;-60
2022/10/12 04:44:32;;;;;;;5.32;3.33;;;;;;;;;;5030153;28;20044;-61
2022/10/12 04:46:58;;;;;;;6.03;4.05;;;;;;;;;;5032122;28;20032;-60
2022/10/12 04:49:24;;;;;;;6.25;3.70;;;;;;;;;;5032887;28;20028;-60
2022/10/12 04:51:50;;;;;;;8.05;3.53;;;;;;;;;;5030645;28;20087;-61
2022/10/12 04:54:17;;;;;;;5.32;3.35;;;;;;;;;;5032800;28;20083;-60
2022/10/12 04:56:43;;;;;;;8.68;3.40;;;;;;;;;;5030519;28;20046;-60
2022/10/12 04:59:09;;;;;;;5.38;3.22;;;;;;;;;;5032844;28;20380;-60
2022/10/12 05:01:35;;;;;;;9.57;3.55;;;;;;;;;;5031751;28;20025;-61
2022/10/12 05:04:01;;;;;;;6.93;3.40;;;;;;;;;;5031199;28;20029;-61
2022/10/12 05:06:27;;;;;;;9.10;3.45;;;;;;;;;;5032578;28;20093;-60
2022/10/12 05:08:53;;;;;;;11.45;3.42;;;;;;;;;;5028257;28;20125;-60
2022/10/12 05:11:20;;;;;;;7.90;3.03;;;;;;;;;;5028788;28;20108;-60
2022/10/12 05:13:46;;;;;;;6.82;3.60;;;;;;;;;;5020211;28;20025;-61
2022/10/12 05:16:12;;;;;;;5.80;3.08;;;;;;;;;;5031249;28;20040;-60
2022/10/12 05:18:38;;;;;;;10.40;5.03;;;;;;;;;;5030006;28;20416;-60
2022/10/12 05:21:04;;;;;;;8.75;3.45;;;;;;;;;;5026284;28;20025;-61
2022/10/12 05:23:30;;;;;;;10.05;3.08;;;;;;;;;;5031572;28;20029;-60
2022/10/12 05:25:56;;;;;;;7.60;3.10;;;;;;;;;;5032728;28;20029;-60
2022/10/12 05:28:23;;;;;;;8.93;3.55;;;;;;;;;;5029425;28;20053;-60
2022/10/12 05:30:50;;;;;;;11.52;3.63;;;;;;;;;;5025398;28;20021;-61
2022/10/12 05:33:16;;;;;;;8.57;3.20;;;;;;;;;;5027616;28;20120;-61
2022/10/12 05:35:43;;;;;;;6.20;3.20;;;;;;;;;;5029548;28;20080;-61
2022/10/12 05:38:09;;;;;;;11.93;3.53;;;;;;;;;;5030762;28;20025;-60
2022/10/12 05:40:35;;;;;;;10.85;3.80;;;;;;;;;;5028887;28;20025;-61
2022/10/12 05:43:01;;;;;;;6.28;3.67;;;;;;;;;;5034683;28;20033;-61
2022/10/12 05:45:28;;;;;;;8.50;3.20;;;;;;;;;;5034458;28;20032;-61
2022/10/12 05:47:54;;;;;;;9.40;3.58;;;;;;;;;;5033011;28;20465;-61
2022/10/12 05:50:20;;;;;;;6.32;3.53;;;;;;;;;;5031858;28;20017;-61
2022/10/12 05:52:47;;;;;;;11.98;3.78;;;;;;;;;;5031478;28;20029;-61
2022/10/12 05:55:13;;;;;;;8.38;3.55;;;;;;;;;;5015306;28;20031;-60
2022/10/12 05:57:39;;;;;;;9.80;3.60;;;;;;;;;;5031505;28;20061;-61
2022/10/12 06:00:07;;;;;;;7.88;3.35;;;;;;;;;;5034067;28;20539;-62
2022/10/12 06:02:36;;;;;;;6.20;3.40;;;;;;;;;;5032089;28;20032;-60
2022/10/12 06:05:02;;;;;;;7.45;3.40;;;;;;;;;;5030632;28;20100;-61
2022/10/12 06:07:28;;;;;;;10.48;3.30;;;;;;;;;;5033591;28;20116;-61
2022/10/12 06:09:54;;;;;;;5.15;3.10;;;;;;;;;;5032049;28;20116;-61
2022/10/12 06:12:20;;;;;;;7.60;3.55;;;;;;;;;;5029422;28;20034;-62
2022/10/12 06:14:46;;;;;;;10.98;3.53;;;;;;;;;;5032686;28;20025;-62
2022/10/12 06:17:12;;;;;;;11.52;4.35;;;;;;;;;;5026863;28;20359;-62
2022/10/12 06:19:38;;;;;;;9.23;4.30;;;;;;;;;;5032722;28;20029;-62
2022/10/12 06:22:04;;;;;;;6.88;4.00;;;;;;;;;;5026929;28;20084;-62
2022/10/12 06:24:31;;;;;;;9.20;4.07;;;;;;;;;;5032186;28;20512;-62
2022/10/12 06:26:57;;;;;;;6.97;3.45;;;;;;;;;;5032437;28;20044;-62
2022/10/12 06:29:23;;;;;;;12.20;4.40;;;;;;;;;;5029473;28;20454;-62
2022/10/12 06:31:50;;;;;;;8.30;3.90;;;;;;;;;;5034052;28;20034;-62
2022/10/12 06:34:16;;;;;;;9.70;5.28;;;;;;;;;;5032898;28;20034;-62
2022/10/12 06:36:42;;;;;;;9.90;5.32;;;;;;;;;;5031246;28;20029;-62
2022/10/12 06:39:09;;;;;;;16.88;5.78;;;;;;;;;;5031423;28;20375;-62
2022/10/12 06:41:36;;;;;;;12.18;5.03;;;;;;;;;;5035204;28;20037;-62
2022/10/12 06:44:07;;;;;;;10.70;5.25;;;;;;;;;;5032945;28;20052;-62
2022/10/12 06:46:33;;;;;;;8.65;4.60;;;;;;;;;;5032838;28;20048;-62
2022/10/12 06:48:59;;;;;;;8.20;4.80;;;;;;;;;;5032119;28;20017;-62
2022/10/12 06:51:25;;;;;;;11.60;4.45;;;;;;;;;;5031384;28;20507;-62
2022/10/12 06:53:54;;;;;;;7.90;3.75;;;;;;;;;;5032874;28;20017;-62
2022/10/12 06:56:20;;;;;;;10.32;4.30;;;;;;;;;;5032819;28;20366;-62
2022/10/12 06:58:46;;;;;;;10.45;4.47;;;;;;;;;;5033729;28;20489;-62
2022/10/12 07:01:12;;;;;;;13.32;4.03;;;;;;;;;;5028594;28;20116;-62
2022/10/12 07:03:38;;;;;;;11.32;4.43;;;;;;;;;;5030004;28;20029;-62
2022/10/12 07:06:09;;;;;;;7.80;3.72;;;;;;;;;;5034076;28;20041;-62
2022/10/12 07:08:35;;;;;;;10.23;4.57;;;;;;;;;;5032262;28;20091;-62
2022/10/12 07:11:02;;;;;;;7.03;4.38;;;;;;;;;;5029778;28;20033;-62
2022/10/12 07:13:28;;;;;;;12.35;4.07;;;;;;;;;;5032113;28;20079;-62
2022/10/12 07:15:54;;;;;;;9.98;4.78;;;;;;;;;;5027539;28;20037;-62
2022/10/12 07:18:20;;;;;;;11.05;5.20;;;;;;;;;;5022551;28;20771;-62
2022/10/12 07:20:46;;;;;;;10.60;5.75;;;;;;;;;;5022368;28;20033;-62
2022/10/12 07:23:12;;;;;;;7.90;4.07;;;;;;;;;;5020523;28;20035;-62
2022/10/12 07:25:38;;;;;;;9.43;4.38;;;;;;;;;;5032445;28;20093;-62
2022/10/12 07:28:05;;;;;;;9.38;4.78;;;;;;;;;;5027303;28;20155;-62
2022/10/12 07:30:32;;;;;;;13.30;4.32;;;;;;;;;;5024208;28;20043;-62
2022/10/12 07:32:58;;;;;;;11.75;4.57;;;;;;;;;;5025772;28;20041;-62
2022/10/12 07:35:24;;;;;;;10.23;4.55;;;;;;;;;;5023709;28;20037;-62
2022/10/12 07:37:50;;;;;;;17.75;4.65;;;;;;;;;;5023396;28;20184;-62
2022/10/12 07:40:16;;;;;;;9.15;3.65;;;;;;;;;;5028320;28;20357;-62
2022/10/12 07:42:42;;;;;;;7.32;3.78;;;;;;;;;;5025539;28;20477;-62
2022/10/12 07:45:09;;;;;;;9.20;3.92;;;;;;;;;;5031361;28;20022;-62
2022/10/12 07:47:35;;;;;;;9.27;3.97;;;;;;;;;;5032527;28;20057;-62
2022/10/12 07:50:01;;;;;;;9.57;4.35;;;;;;;;;;5032053;28;20491;-62
2022/10/12 07:52:27;;;;;;;14.50;5.03;;;;;;;;;;5031101;28;20446;-62
2022/10/12 07:54:53;;;;;;;12.13;4.57;;;;;;;;;;5030583;28;20029;-62
2022/10/12 07:57:19;;;;;;;10.20;4.03;;;;;;;;;;5028704;28;20505;-62
2022/10/12 07:59:46;;;;;;;18.55;5.55;;;;;;;;;;5031740;28;20075;-62
2022/10/12 08:02:12;;;;;;;14.63;4.97;;;;;;;;;;5027822;28;20029;-62
2022/10/12 08:04:38;;;;;;;14.52;5.18;;;;;;;;;;5031613;28;20037;-62
2022/10/12 08:07:04;;;;;;;16.30;5.32;;;;;;;;;;5030963;28;20033;-62
2022/10/12 08:09:30;;;;;;;13.55;5.00;;;;;;;;;;5026356;28;20041;-62
2022/10/12 08:11:56;;;;;;;10.38;4.82;;;;;;;;;;5029753;28;20029;-62
2022/10/12 08:14:23;;;;;;;11.55;4.90;;;;;;;;;;5029993;28;20492;-62
2022/10/12 08:16:49;;;;;;;10.38;4.68;;;;;;;;;;5030485;28;20090;-62
2022/10/12 08:19:15;;;;;;;13.40;4.70;;;;;;;;;;5034689;28;20029;-62
2022/10/12 08:21:41;;;;;;;13.40;5.53;;;;;;;;;;5034492;28;20037;-62
2022/10/12 08:24:08;;;;;;;17.23;4.90;;;;;;;;;;5036866;28;20026;-62
2022/10/12 08:26:34;;;;;;;16.20;6.43;;;;;;;;;;5033831;28;20025;-62
2022/10/12 08:29:04;;;;;;;11.57;5.55;;;;;;;;;;5031004;28;20022;-62
2022/10/12 08:31:31;;;;;;;21.45;6.72;;;;;;;;;;5030288;28;20029;-62
2022/10/12 08:33:57;;;;;;;14.63;6.20;;;;;;;;;;5029382;28;20393;-62
2022/10/12 08:36:24;;;;;;;14.38;6.88;;;;;;;;;;5030775;28;20025;-62
2022/10/12 08:38:52;;;;;;;21.45;6.60;;;;;;;;;;5027737;28;20377;-62
2022/10/12 08:41:21;;;;;;;19.38;6.97;;;;;;;;;;5034452;28;20022;-62
2022/10/12 08:44:06;;;;;;;21.20;6.95;;;;;;;;;;5030337;28;20168;-62
2022/10/12 08:46:32;;;;;;;21.55;8.20;;;;;;;;;;5021054;28;20579;-62
2022/10/12 08:49:06;;;;;;;17.77;7.70;;;;;;;;;;5019655;28;20022;-62
2022/10/12 08:51:35;;;;;;;19.55;7.13;;;;;;;;;;5023389;28;20028;-62
2022/10/12 08:54:05;;;;;;;18.30;7.00;;;;;;;;;;5019683;28;20109;-62
2022/10/12 08:56:33;;;;;;;17.63;7.70;;;;;;;;;;5029902;28;20497;-62
2022/10/12 08:59:01;;;;;;;17.30;7.88;;;;;;;;;;5034333;28;20029;-62
2022/10/12 09:01:31;;;;;;;16.00;8.05;;;;;;;;;;5025998;28;20026;-62
2022/10/12 09:04:03;;;;;;;17.08;7.90;;;;;;;;;;5022785;28;20042;-62
2022/10/12 09:06:49;;;;;;;24.23;8.45;;;;;;;;;;5026886;28;20025;-62
2022/10/12 09:09:38;;;;;;;23.55;8.07;;;;;;;;;;5025094;28;20037;-62
2022/10/12 09:12:04;;;;;;;17.08;6.68;;;;;;;;;;5025986;28;20116;-62
2022/10/12 09:14:32;;;;;;;20.70;6.78;;;;;;;;;;5022521;28;20036;-62
2022/10/12 09:17:00;;;;;;;15.45;6.07;;;;;;;;;;5027999;28;20025;-62
2022/10/12 09:19:31;;;;;;;15.68;5.38;;;;;;;;;;5023008;28;20041;-62
2022/10/12 09:21:58;;;;;;;15.20;4.57;;;;;;;;;;5029075;28;20037;-62
2022/10/12 09:24:26;;;;;;;14.90;4.38;;;;;;;;;;5024254;28;20160;-62
2022/10/12 09:26:54;;;;;;;17.60;4.18;;;;;;;;;;5024513;28;20041;-62
2022/10/12 09:29:27;;;;;;;18.23;3.90;;;;;;;;;;5023896;28;20478;-62
2022/10/12 09:32:19;;;;;;;15.20;3.92;;;;;;;;;;5023281;28;20505;-62
2022/10/12 09:34:45;;;;;;;14.90;4.22;;;;;;;;;;5024714;28;20022;-62
2022/10/12 09:37:14;;;;;;;11.82;3.38;;;;;;;;;;5023459;28;20111;-62
2022/10/12 09:39:40;;;;;;;12.52;3.97;;;;;;;;;;5026878;28;20067;-62
2022/10/12 09:42:08;;;;;;;11.73;3.97;;;;;;;;;;5024105;28;20025;-62
2022/10/12 09:44:38;;;;;;;16.15;3.58;;;;;;;;;;5025643;28;20113;-62
2022/10/12 09:47:06;;;;;;;12.25;4.45;;;;;;;;;;5026861;28;20038;-62
2022/10/12 09:49:39;;;;;;;13.00;3.00;;;;;;;;;;5023807;28;20033;-62
2022/10/12 09:52:06;;;;;;;10.00;3.20;;;;;;;;;;5024240;28;20482;-62
2022/10/12 09:54:32;;;;;;;18.00;3.60;;;;;;;;;;5025513;28;20022;-62
2022/10/12 09:56:58;;;;;;;14.52;3.22;;;;;;;;;;5033056;28;20021;-62
2022/10/12 09:59:39;;;;;;;16.35;3.55;;;;;;;;;;5022660;28;20179;-62
2022/10/12 10:02:07;;;;;;;21.48;3.30;;;;;;;;;;5024056;28;20049;-63
2022/10/12 10:04:34;;;;;;;14.10;3.55;;;;;;;;;;5029944;28;20034;-63
2022/10/12 10:07:19;;;;;;;12.80;2.85;;;;;;;;;;5026561;28;20029;-63
2022/10/12 10:09:46;;;;;;;8.80;2.47;;;;;;;;;;5028185;28;20175;-63
2022/10/12 10:12:23;;;;;;;9.00;2.08;;;;;;;;;;5024328;28;20057;-63
2022/10/12 10:14:50;;;;;;;11.23;3.30;;;;;;;;;;5023960;28;20030;-63
2022/10/12 10:17:17;;;;;;;13.07;2.80;;;;;;;;;;5024253;28;20072;-63
2022/10/12 10:19:53;;;;;;;15.65;3.20;;;;;;;;;;5031506;28;20414;-63
2022/10/12 10:22:20;;;;;;;7.32;2.63;;;;;;;;;;5024639;28;20847;-63
2022/10/12 10:24:50;;;;;;;12.93;2.40;;;;;;;;;;5026959;28;20029;-63
2022/10/12 10:27:28;;;;;;;10.98;2.17;;;;;;;;;;5024033;28;20032;-63
2022/10/12 10:30:07;;;;;;;7.03;2.10;;;;;;;;;;5026963;28;20109;-63
2022/10/12 10:32:33;;;;;;;12.95;3.10;;;;;;;;;;5029181;28;20029;-63
2022/10/12 10:35:01;;;;;;;12.15;2.20;;;;;;;;;;5023704;28;20478;-63
2022/10/12 10:37:27;;;;;;;10.05;2.20;;;;;;;;;;5031065;28;20066;-63
2022/10/12 10:39:55;;;;;;;8.65;2.10;;;;;;;;;;5024609;28;20034;-63
2022/10/12 10:42:27;;;;;;;7.28;2.13;;;;;;;;;;5027486;28;20045;-63
2022/10/12 10:44:58;;;;;;;14.00;2.15;;;;;;;;;;5022605;28;20367;-63
2022/10/12 10:47:24;;;;;;;9.40;3.35;;;;;;;;;;5025157;28;20474;-63
2022/10/12 10:49:58;;;;;;;12.10;2.65;;;;;;;;;;5025277;28;20033;-63
2022/10/12 10:52:24;;;;;;;8.82;2.30;;;;;;;;;;5027514;28;20033;-63
2022/10/12 10:55:06;;;;;;;5.65;2.13;;;;;;;;;;5023385;28;20079;-63
2022/10/12 10:57:33;;;;;;;13.63;2.40;;;;;;;;;;5024577;28;20048;-63
2022/10/12 11:00:02;;;;;;;10.13;2.30;;;;;;;;;;5021973;28;20032;-63
2022/10/12 11:02:47;;;;;;;14.10;2.72;;;;;;;;;;5022940;28;20048;-63
2022/10/12 11:05:16;;;;;;;9.73;2.60;;;;;;;;;;5026270;28;20029;-63
2022/10/12 11:07:48;;;;;;;11.57;2.10;;;;;;;;;;5024052;28;20011;-63
2022/10/12 11:10:21;;;;;;;7.93;2.55;;;;;;;;;;5027971;28;20029;-63
2022/10/12 11:12:49;;;;;;;13.05;3.72;;;;;;;;;;5021497;28;20034;-63
2022/10/12 11:15:19;;;;;;;11.85;2.65;;;;;;;;;;5026398;28;20032;-63
2022/10/12 11:17:46;;;;;;;12.05;2.38;;;;;;;;;;5027299;28;20045;-63
2022/10/12 11:20:51;;;;;;;14.18;3.88;;;;;;;;;;5021071;28;20030;-63
2022/10/12 11:23:20;;;;;;;9.23;2.53;;;;;;;;;;5020278;28;20426;-63
2022/10/12 11:26:09;;;;;;;8.10;2.53;;;;;;;;;;5024006;28;20448;-63
2022/10/12 11:28:37;;;;;;;8.32;1.95;;;;;;;;;;5012543;28;20044;-63
2022/10/12 11:31:04;;;;;;;12.43;3.47;;;;;;;;;;5023679;28;20037;-63
2022/10/12 11:33:37;;;;;;;18.23;2.38;;;;;;;;;;5023738;28;20036;-63
2022/10/12 11:36:06;;;;;;;12.88;2.17;;;;;;;;;;5020999;28;20045;-63
2022/10/12 11:38:59;;;;;;;8.23;2.00;;;;;;;;;;5021611;28;20382;-63
2022/10/12 11:41:44;;;;;;;10.65;2.35;;;;;;;;;;5020479;28;20042;-63
2022/10/12 11:44:21;;;;;;;19.63;3.90;;;;;;;;;;5009792;28;20199;-63
2022/10/12 11:46:52;;;;;;;8.80;2.42;;;;;;;;;;5025830;28;20418;-63
2022/10/12 11:49:36;;;;;;;7.97;2.15;;;;;;;;;;5024399;28;20108;-63
2022/10/12 11:52:08;;;;;;;8.77;2.03;;;;;;;;;;5023135;28;20045;-63
2022/10/12 11:54:34;;;;;;;9.38;2.45;;;;;;;;;;5024631;28;20065;-63
2022/10/12 11:57:03;;;;;;;10.27;2.33;;;;;;;;;;5025226;28;20029;-63
2022/10/12 11:59:35;;;;;;;10.73;2.05;;;;;;;;;;5026481;28;20057;-63
2022/10/12 12:02:14;;;;;;;12.70;2.70;;;;;;;;;;5028685;28;20061;-64
2022/10/12 12:04:45;;;;;;;9.02;1.92;;;;;;;;;;5021780;28;20394;-63
2022/10/12 12:07:12;;;;;;;17.00;2.20;;;;;;;;;;5021240;28;20029;-63
2022/10/12 12:09:42;;;;;;;15.60;2.72;;;;;;;;;;5024537;28;20039;-63
2022/10/12 12:12:10;;;;;;;16.90;2.85;;;;;;;;;;5024319;28;20073;-63
2022/10/12 12:14:44;;;;;;;15.95;2.53;;;;;;;;;;5021304;28;20397;-63
2022/10/12 12:17:14;;;;;;;14.57;2.88;;;;;;;;;;5024684;28;20179;-63
2022/10/12 12:19:41;;;;;;;7.63;2.33;;;;;;;;;;5025927;28;20108;-63
2022/10/12 12:22:23;;;;;;;10.95;2.83;;;;;;;;;;5023868;28;20026;-63
2022/10/12 12:24:52;;;;;;;10.18;2.42;;;;;;;;;;5024831;28;20478;-63
2022/10/12 12:27:30;;;;;;;9.23;1.80;;;;;;;;;;5025763;28;20105;-63
2022/10/12 12:29:57;;;;;;;12.68;2.70;;;;;;;;;;5024887;28;20034;-63
2022/10/12 12:32:24;;;;;;;9.95;2.92;;;;;;;;;;5022949;28;20084;-63
2022/10/12 12:34:54;;;;;;;8.10;2.13;;;;;;;;;;5022436;28;20033;-63
2022/10/12 12:37:21;;;;;;;16.40;2.88;;;;;;;;;;5022636;28;21758;-63
2022/10/12 12:39:51;;;;;;;11.30;2.38;;;;;;;;;;5022186;28;21509;-63
2022/10/12 12:42:26;;;;;;;10.82;2.38;;;;;;;;;;5024541;28;20025;-63
2022/10/12 12:44:52;;;;;;;13.10;2.15;;;;;;;;;;5030052;28;20033;-63
2022/10/12 12:47:20;;;;;;;15.48;2.47;;;;;;;;;;5030098;28;20022;-63
2022/10/12 12:49:48;;;;;;;12.57;2.60;;;;;;;;;;5027204;28;20026;-63
2022/10/12 12:52:21;;;;;;;14.25;2.40;;;;;;;;;;5034010;28;20048;-63
2022/10/12 12:54:47;;;;;;;;;;;;;;;;;;5026712;28;20384;-63
2022/10/12 12:57:31;;;;;;;12.38;2.30;;;;;;;;;;5029359;28;19909;-63
2022/10/12 13:00:12;;;;;;;8.73;3.00;;;;;;;;;;5022922;28;20025;-63
2022/10/12 13:02:57;;;;;;;14.27;3.55;;;;;;;;;;5026177;28;20033;-63
2022/10/12 13:05:23;;;;;;;11.00;2.60;;;;;;;;;;5028782;28;20028;-63
2022/10/12 13:08:07;;;;;;;12.63;2.35;;;;;;;;;;5023234;28;20072;-63
2022/10/12 13:10:52;;;;;;;8.88;2.15;;;;;;;;;;5023882;28;20053;-63
2022/10/12 13:13:18;;;;;;;16.33;2.20;;;;;;;;;;5028023;28;20049;-63
2022/10/12 13:15:52;;;;;;;6.97;2.08;;;;;;;;;;5022413;28;20553;-63
2022/10/12 13:18:28;;;;;;;8.00;2.47;;;;;;;;;;5024316;28;20549;-63
2022/10/12 13:20:54;;;;;;;11.93;2.38;;;;;;;;;;5024800;28;20072;-63
2022/10/12 13:23:22;;;;;;;16.45;2.28;;;;;;;;;;5026931;28;20435;-63
2022/10/12 13:25:57;;;;;;;9.70;2.30;;;;;;;;;;5023145;28;20026;-63
2022/10/12 13:28:30;;;;;;;10.18;1.88;;;;;;;;;;5026339;28;20371;-63
2022/10/12 13:31:09;;;;;;;8.32;2.20;;;;;;;;;;5027327;28;20096;-63
2022/10/12 13:33:44;;;;;;;10.18;2.33;;;;;;;;;;5017809;28;20030;-63
2022/10/12 13:36:16;;;;;;;11.27;2.10;;;;;;;;;;5024634;28;20490;-63
2022/10/12 13:38:42;;;;;;;11.97;3.27;;;;;;;;;;5019208;28;20029;-63
2022/10/12 13:41:13;;;;;;;12.70;2.53;;;;;;;;;;5029053;28;20268;-63
2022/10/12 13:43:49;;;;;;;9.40;2.40;;;;;;;;;;5025815;28;20113;-63
2022/10/12 13:46:34;;;;;;;14.70;2.40;;;;;;;;;;5029311;28;20464;-63
2022/10/12 13:49:00;;;;;;;6.22;2.03;;;;;;;;;;5023040;28;20465;-63
2022/10/12 13:51:28;;;;;;;9.95;2.47;;;;;;;;;;5023452;28;20104;-63
2022/10/12 13:53:54;;;;;;;7.13;1.90;;;;;;;;;;5024684;28;20030;-63
2022/10/12 13:56:23;;;;;;;10.55;2.65;;;;;;;;;;5024232;28;20076;-63
2022/10/12 13:58:51;;;;;;;7.93;1.92;;;;;;;;;;5021096;28;20032;-63
2022/10/12 14:01:17;;;;;;;11.20;2.97;;;;;;;;;;5020073;28;20041;-63
2022/10/12 14:03:44;;;;;;;8.02;2.15;;;;;;;;;;5025047;28;20033;-63
2022/10/12 14:06:30;;;;;;;10.95;1.90;;;;;;;;;;5027103;28;20040;-63
2022/10/12 14:08:57;;;;;;;8.95;2.20;;;;;;;;;;5027785;28;20021;-63
2022/10/12 14:11:25;;;;;;;10.18;2.42;;;;;;;;;;5026228;28;20491;-63
2022/10/12 14:13:52;;;;;;;7.22;2.03;;;;;;;;;;5022674;28;20036;-63
2022/10/12 14:16:18;;;;;;;8.27;2.13;;;;;;;;;;5023877;28;20444;-63
2022/10/12 14:18:45;;;;;;;6.45;2.28;;;;;;;;;;5028885;28;20755;-63
2022/10/12 14:21:11;;;;;;;7.80;2.25;;;;;;;;;;5023615;28;20022;-63
2022/10/12 14:23:42;;;;;;;8.27;2.15;;;;;;;;;;5022791;28;20065;-63
2022/10/12 14:26:20;;;;;;;7.72;1.77;;;;;;;;;;5023912;28;20022;-63
2022/10/12 14:28:46;;;;;;;7.03;1.90;;;;;;;;;;5026075;28;20033;-63
2022/10/12 14:31:12;;;;;;;8.50;1.92;;;;;;;;;;5027424;28;20462;-63
2022/10/12 14:33:39;;;;;;;8.88;2.70;;;;;;;;;;5021488;28;20108;-63
2022/10/12 14:36:12;;;;;;;10.90;2.25;;;;;;;;;;5027766;28;20028;-63
2022/10/12 14:38:43;;;;;;;6.82;1.80;;;;;;;;;;5028194;28;20033;-63
2022/10/12 14:41:28;;;;;;;14.30;2.97;;;;;;;;;;5027979;28;20568;-63
2022/10/12 14:44:12;;;;;;;8.05;2.17;;;;;;;;;;5028816;28;20381;-63
2022/10/12 14:47:01;;;;;;;13.85;2.70;;;;;;;;;;5029028;28;20493;-63